createdAt,value
2019-05-28T00:01:00.772Z,17.16
2019-05-28T00:03:32.743Z,17.16
2019-05-28T00:06:04.681Z,17.14
2019-05-28T00:08:36.665Z,17.08
2019-05-28T00:11:08.731Z,17.06
2019-05-28T00:13:40.733Z,17.03
2019-05-28T00:16:12.684Z,16.99
2019-05-28T00:18:44.653Z,16.98
2019-05-28T00:21:16.599Z,16.95
2019-05-28T00:23:48.551Z,16.95
2019-05-28T00:26:20.489Z,16.92
2019-05-28T00:28:52.452Z,16.92
2019-05-28T00:31:24.450Z,16.89
2019-05-28T00:33:56.447Z,16.87
2019-05-28T00:36:28.452Z,16.84
2019-05-28T00:39:00.378Z,16.81
2019-05-28T00:41:32.413Z,16.82
2019-05-28T00:44:04.388Z,16.80
2019-05-28T00:46:36.346Z,16.73
2019-05-28T00:49:08.324Z,16.72
2019-05-28T00:51:41.603Z,16.67
2019-05-28T00:54:13.584Z,16.69
2019-05-28T00:56:46.155Z,16.66
2019-05-28T00:59:18.699Z,16.63
2019-05-28T01:01:50.670Z,16.71
2019-05-28T01:04:22.660Z,16.61
2019-05-28T01:06:59.458Z,16.59
2019-05-28T01:09:31.422Z,16.57
2019-05-28T01:12:03.449Z,16.56
2019-05-28T01:14:35.443Z,16.62
2019-05-28T01:17:07.374Z,16.65
2019-05-28T01:19:39.430Z,16.56
2019-05-28T01:22:11.384Z,16.47
2019-05-28T01:24:43.330Z,16.47
2019-05-28T01:27:15.288Z,16.43
2019-05-28T01:29:47.217Z,16.34
2019-05-28T01:32:19.169Z,16.31
2019-05-28T01:34:51.113Z,16.27
2019-05-28T01:37:23.104Z,16.23
2019-05-28T01:39:55.033Z,16.25
2019-05-28T01:42:26.993Z,16.28
2019-05-28T01:44:58.965Z,16.21
2019-05-28T01:47:30.932Z,16.28
2019-05-28T01:50:03.080Z,16.25
2019-05-28T01:52:35.050Z,16.26
2019-05-28T01:55:07.300Z,16.30
2019-05-28T01:57:39.271Z,16.31
2019-05-28T02:00:11.602Z,16.30
2019-05-28T02:02:43.611Z,16.30
2019-05-28T02:05:15.757Z,16.23
2019-05-28T02:07:47.724Z,16.23
2019-05-28T02:10:19.879Z,16.14
2019-05-28T02:12:51.883Z,16.11
2019-05-28T02:15:23.833Z,16.12
2019-05-28T02:17:55.769Z,16.16
2019-05-28T02:20:27.726Z,16.09
2019-05-28T02:22:59.729Z,16.04
2019-05-28T02:25:31.660Z,16.09
2019-05-28T02:28:04.025Z,16.12
2019-05-28T02:30:35.981Z,16.13
2019-05-28T02:33:07.976Z,16.12
2019-05-28T02:35:39.915Z,16.14
2019-05-28T02:38:11.856Z,16.10
2019-05-28T02:40:43.819Z,16.08
2019-05-28T02:43:15.791Z,16.12
2019-05-28T02:45:47.771Z,16.14
2019-05-28T02:48:19.717Z,16.12
2019-05-28T02:50:59.869Z,16.14
2019-05-28T02:53:32.242Z,16.10
2019-05-28T02:56:04.303Z,16.07
2019-05-28T02:58:36.366Z,16.06
2019-05-28T03:01:08.293Z,16.09
2019-05-28T03:03:40.355Z,15.99
2019-05-28T03:06:13.013Z,15.88
2019-05-28T03:08:47.100Z,15.89
2019-05-28T03:11:19.043Z,15.90
2019-05-28T03:13:50.993Z,15.89
2019-05-28T03:16:25.224Z,15.89
2019-05-28T03:18:58.013Z,15.91
2019-05-28T03:21:31.665Z,15.92
2019-05-28T03:24:03.958Z,15.90
2019-05-28T03:26:35.912Z,15.87
2019-05-28T03:29:07.896Z,15.86
2019-05-28T03:31:39.840Z,15.85
2019-05-28T03:34:11.914Z,15.83
2019-05-28T03:36:44.297Z,15.78
2019-05-28T03:39:16.306Z,15.80
2019-05-28T03:41:48.265Z,15.74
2019-05-28T03:44:20.249Z,15.72
2019-05-28T03:46:52.278Z,15.65
2019-05-28T03:49:24.246Z,15.64
2019-05-28T03:51:56.204Z,15.66
2019-05-28T03:54:28.214Z,15.69
2019-05-28T03:57:00.189Z,15.65
2019-05-28T03:59:32.155Z,15.63
2019-05-28T04:02:04.102Z,15.63
2019-05-28T04:04:36.070Z,15.63
2019-05-28T04:07:08.006Z,15.68
2019-05-28T04:09:39.970Z,15.70
2019-05-28T04:12:14.807Z,15.63
2019-05-28T04:14:46.808Z,15.65
2019-05-28T04:17:18.876Z,15.64
2019-05-28T04:19:50.814Z,15.60
2019-05-28T04:22:22.761Z,15.59
2019-05-28T04:24:54.740Z,15.53
2019-05-28T04:27:26.707Z,15.46
2019-05-28T04:29:58.673Z,15.46
2019-05-28T04:32:39.861Z,15.42
2019-05-28T04:35:05.154Z,15.35
2019-05-28T04:37:37.163Z,15.31
2019-05-28T04:40:09.187Z,15.36
2019-05-28T04:42:41.148Z,15.42
2019-05-28T04:45:13.109Z,15.40
2019-05-28T04:47:45.091Z,15.46
2019-05-28T04:50:17.093Z,15.45
2019-05-28T04:52:49.021Z,15.49
2019-05-28T04:55:20.998Z,15.51
2019-05-28T04:57:53.015Z,15.49
2019-05-28T05:00:24.965Z,15.45
2019-05-28T05:02:59.914Z,15.45
2019-05-28T05:05:30.824Z,15.38
2019-05-28T05:08:02.777Z,15.37
2019-05-28T05:10:34.722Z,15.28
2019-05-28T05:13:06.806Z,15.29
2019-05-28T05:15:38.748Z,15.29
2019-05-28T05:18:10.714Z,15.32
2019-05-28T05:20:42.677Z,15.35
2019-05-28T05:23:14.610Z,15.37
2019-05-28T05:25:46.580Z,15.47
2019-05-28T05:28:18.526Z,15.37
2019-05-28T05:30:50.484Z,15.38
2019-05-28T05:33:22.517Z,15.42
2019-05-28T05:35:54.440Z,15.36
2019-05-28T05:38:26.412Z,15.42
2019-05-28T05:40:58.377Z,15.44
2019-05-28T05:43:30.351Z,15.39
2019-05-28T05:46:02.308Z,15.32
2019-05-28T05:48:35.510Z,15.33
2019-05-28T05:51:07.446Z,15.31
2019-05-28T05:53:39.548Z,15.26
2019-05-28T05:56:11.711Z,15.21
2019-05-28T05:58:43.660Z,15.16
2019-05-28T06:01:15.635Z,15.21
2019-05-28T06:03:49.039Z,15.18
2019-05-28T06:06:20.972Z,15.08
2019-05-28T06:08:52.934Z,14.98
2019-05-28T06:11:24.878Z,15.00
2019-05-28T06:13:56.833Z,14.95
2019-05-28T06:16:28.846Z,14.92
2019-05-28T06:19:00.805Z,14.91
2019-05-28T06:21:32.761Z,14.90
2019-05-28T06:24:04.760Z,14.89
2019-05-28T06:26:36.707Z,14.91
2019-05-28T06:29:08.685Z,14.90
2019-05-28T06:31:40.618Z,14.93
2019-05-28T06:34:12.623Z,14.96
2019-05-28T06:36:44.580Z,14.94
2019-05-28T06:39:16.563Z,14.87
2019-05-28T06:41:48.490Z,14.79
2019-05-28T06:44:20.451Z,14.92
2019-05-28T06:46:52.492Z,15.03
2019-05-28T06:49:24.499Z,15.00
2019-05-28T06:51:56.448Z,14.99
2019-05-28T06:54:28.423Z,14.89
2019-05-28T06:57:00.381Z,14.82
2019-05-28T06:59:32.354Z,14.70
2019-05-28T07:02:05.191Z,14.64
2019-05-28T07:04:37.193Z,14.65
2019-05-28T07:07:09.129Z,14.68
2019-05-28T07:09:41.103Z,14.77
2019-05-28T07:12:13.059Z,14.84
2019-05-28T07:14:45.059Z,14.85
2019-05-28T07:17:16.978Z,14.85
2019-05-28T07:19:48.959Z,14.88
2019-05-28T07:22:20.933Z,14.91
2019-05-28T07:24:52.928Z,14.92
2019-05-28T07:27:24.911Z,14.96
2019-05-28T07:29:56.873Z,15.04
2019-05-28T07:32:28.847Z,15.12
2019-05-28T07:35:00.845Z,15.25
2019-05-28T07:37:32.781Z,15.35
2019-05-28T07:40:04.962Z,15.42
2019-05-28T07:42:36.922Z,15.42
2019-05-28T07:45:09.258Z,15.55
2019-05-28T07:47:41.247Z,15.60
2019-05-28T07:50:13.593Z,15.70
2019-05-28T07:52:45.553Z,15.80
2019-05-28T07:55:17.550Z,15.94
2019-05-28T07:57:49.528Z,16.04
2019-05-28T08:00:35.391Z,16.06
2019-05-28T08:03:07.464Z,16.06
2019-05-28T08:05:39.468Z,16.01
2019-05-28T08:08:15.174Z,16.15
2019-05-28T08:10:49.948Z,16.31
2019-05-28T08:13:21.912Z,16.53
2019-05-28T08:15:53.907Z,16.72
2019-05-28T08:18:25.866Z,16.86
2019-05-28T08:20:57.837Z,16.97
2019-05-28T08:23:29.823Z,16.96
2019-05-28T08:26:02.146Z,17.04
2019-05-28T08:28:34.201Z,16.98
2019-05-28T08:31:16.182Z,16.92
2019-05-28T08:33:40.167Z,16.78
2019-05-28T08:36:12.122Z,16.56
2019-05-28T08:38:44.148Z,16.51
2019-05-28T08:41:16.121Z,16.44
2019-05-28T08:43:48.094Z,16.33
2019-05-28T08:46:20.051Z,16.27
2019-05-28T08:48:52.043Z,16.30
2019-05-28T08:51:24.011Z,16.31
2019-05-28T08:53:56.012Z,16.39
2019-05-28T08:56:28.010Z,16.56
2019-05-28T08:59:01.354Z,16.55
2019-05-28T09:01:33.273Z,16.57
2019-05-28T09:04:05.257Z,16.47
2019-05-28T09:06:37.232Z,16.49
2019-05-28T09:09:09.178Z,16.42
2019-05-28T09:11:43.579Z,16.45
2019-05-28T09:14:15.561Z,16.45
2019-05-28T09:16:47.517Z,16.59
2019-05-28T09:19:19.494Z,16.83
2019-05-28T09:21:51.427Z,16.72
2019-05-28T09:24:27.460Z,16.79
2019-05-28T09:26:57.299Z,16.98
2019-05-28T09:29:29.280Z,16.94
2019-05-28T09:32:01.227Z,16.93
2019-05-28T09:34:33.204Z,16.81
2019-05-28T09:37:05.163Z,16.62
2019-05-28T09:39:37.176Z,16.37
2019-05-28T09:42:09.133Z,16.32
2019-05-28T09:44:41.140Z,16.33
2019-05-28T09:47:13.125Z,16.35
2019-05-28T09:49:47.567Z,16.37
2019-05-28T09:52:19.532Z,16.44
2019-05-28T09:54:51.501Z,16.53
2019-05-28T09:57:23.457Z,16.61
2019-05-28T09:59:55.532Z,16.65
2019-05-28T10:02:27.579Z,16.83
2019-05-28T10:04:59.571Z,16.98
2019-05-28T10:07:31.566Z,17.07
2019-05-28T10:10:04.033Z,16.93
2019-05-28T10:12:35.990Z,16.89
2019-05-28T10:15:08.378Z,17.04
2019-05-28T10:17:40.385Z,17.01
2019-05-28T10:20:13.564Z,17.04
2019-05-28T10:22:45.548Z,17.01
2019-05-28T10:25:17.530Z,17.03
2019-05-28T10:28:00.666Z,16.87
2019-05-28T10:30:23.811Z,16.93
2019-05-28T10:32:55.872Z,17.03
2019-05-28T10:35:27.975Z,16.95
2019-05-28T10:38:00.026Z,16.94
2019-05-28T10:40:32.066Z,16.99
2019-05-28T10:43:04.046Z,17.03
2019-05-28T10:45:36.068Z,17.14
2019-05-28T10:48:08.052Z,17.26
2019-05-28T10:50:40.094Z,17.33
2019-05-28T10:53:12.057Z,17.38
2019-05-28T10:55:44.047Z,17.51
2019-05-28T10:58:15.999Z,17.49
2019-05-28T11:00:48.024Z,17.63
2019-05-28T11:03:20.008Z,17.60
2019-05-28T11:05:52.016Z,17.72
2019-05-28T11:08:24.014Z,17.77
2019-05-28T11:10:56.016Z,17.97
2019-05-28T11:13:28.016Z,18.11
2019-05-28T11:16:00.022Z,18.15
2019-05-28T11:18:32.013Z,18.22
2019-05-28T11:21:09.097Z,18.23
2019-05-28T11:23:37.895Z,18.14
2019-05-28T11:26:09.877Z,18.16
2019-05-28T11:28:41.879Z,18.27
2019-05-28T11:31:13.851Z,18.27
2019-05-28T11:33:45.864Z,18.23
2019-05-28T11:36:17.865Z,18.39
2019-05-28T11:38:49.885Z,18.46
2019-05-28T11:41:22.021Z,18.43
2019-05-28T11:43:54.054Z,18.51
2019-05-28T11:46:26.009Z,18.50
2019-05-28T11:48:58.018Z,18.72
2019-05-28T11:51:29.983Z,18.74
2019-05-28T11:54:02.027Z,18.79
2019-05-28T11:56:33.971Z,18.81
2019-05-28T11:59:05.985Z,18.85
2019-05-28T12:01:37.969Z,18.74
2019-05-28T12:04:10.034Z,18.68
2019-05-28T12:06:41.990Z,18.67
2019-05-28T12:09:14.028Z,18.70
2019-05-28T12:11:46.019Z,18.95
2019-05-28T12:14:17.991Z,18.95
2019-05-28T12:16:49.948Z,18.85
2019-05-28T12:19:21.953Z,18.88
2019-05-28T12:21:53.987Z,19.02
2019-05-28T12:24:28.596Z,19.06
2019-05-28T12:27:00.029Z,18.82
2019-05-28T12:29:31.994Z,18.57
2019-05-28T12:32:06.186Z,18.69
2019-05-28T12:34:40.976Z,18.71
2019-05-28T12:37:12.957Z,18.68
2019-05-28T12:39:44.937Z,18.85
2019-05-28T12:42:16.916Z,18.84
2019-05-28T12:45:07.998Z,19.06
2019-05-28T12:47:22.863Z,19.13
2019-05-28T12:49:54.858Z,19.07
2019-05-28T12:52:26.838Z,19.36
2019-05-28T12:54:58.874Z,19.30
2019-05-28T12:57:30.843Z,19.29
2019-05-28T13:00:03.588Z,19.36
2019-05-28T13:02:35.574Z,19.44
2019-05-28T13:05:09.083Z,19.46
2019-05-28T13:07:41.056Z,19.26
2019-05-28T13:10:13.651Z,19.42
2019-05-28T13:12:45.610Z,19.55
2019-05-28T13:15:19.398Z,19.60
2019-05-28T13:17:51.561Z,19.57
2019-05-28T13:20:24.005Z,19.61
2019-05-28T13:22:56.803Z,19.55
2019-05-28T13:25:28.813Z,19.68
2019-05-28T13:28:00.775Z,19.86
2019-05-28T13:30:32.774Z,19.88
2019-05-28T13:33:04.778Z,19.81
2019-05-28T13:35:36.747Z,19.86
2019-05-28T13:38:25.650Z,19.86
2019-05-28T13:40:42.656Z,19.95
2019-05-28T13:43:14.756Z,20.01
2019-05-28T13:45:46.780Z,19.89
2019-05-28T13:48:18.834Z,19.71
2019-05-28T13:50:50.878Z,19.74
2019-05-28T13:53:22.920Z,19.87
2019-05-28T13:55:54.974Z,19.95
2019-05-28T13:58:26.937Z,20.10
2019-05-28T14:00:58.954Z,20.29
2019-05-28T14:03:30.923Z,20.24
2019-05-28T14:06:02.938Z,20.16
2019-05-28T14:08:45.961Z,20.14
2019-05-28T14:11:08.903Z,20.23
2019-05-28T14:13:40.896Z,20.37
2019-05-28T14:16:12.933Z,20.29
2019-05-28T14:18:44.903Z,20.32
2019-05-28T14:21:16.950Z,20.27
2019-05-28T14:23:48.950Z,20.28
2019-05-28T14:26:20.966Z,20.25
2019-05-28T14:28:53.896Z,20.26
2019-05-28T14:31:26.097Z,20.24
2019-05-28T14:33:58.109Z,20.35
2019-05-28T14:36:30.124Z,20.25
2019-05-28T14:39:03.820Z,20.29
2019-05-28T14:41:36.166Z,20.19
2019-05-28T14:44:08.190Z,20.35
2019-05-28T14:46:40.209Z,20.13
2019-05-28T14:49:12.200Z,20.06
2019-05-28T14:51:44.205Z,19.96
2019-05-28T14:54:16.165Z,19.76
2019-05-28T14:56:48.184Z,19.65
2019-05-28T14:59:20.190Z,19.75
2019-05-28T15:01:52.199Z,19.88
2019-05-28T15:04:24.192Z,19.87
2019-05-28T15:06:57.292Z,19.83
2019-05-28T15:09:29.538Z,19.82
2019-05-28T15:12:03.827Z,19.78
2019-05-28T15:14:35.563Z,19.79
2019-05-28T15:17:07.549Z,19.93
2019-05-28T15:19:39.582Z,19.71
2019-05-28T15:22:11.657Z,19.55
2019-05-28T15:24:49.734Z,19.58
2019-05-28T15:27:20.314Z,19.52
2019-05-28T15:29:52.453Z,19.52
2019-05-28T15:32:24.465Z,19.52
2019-05-28T15:34:56.507Z,19.47
2019-05-28T15:37:28.471Z,19.40
2019-05-28T15:40:00.494Z,19.50
2019-05-28T15:42:32.516Z,19.35
2019-05-28T15:45:05.113Z,19.36
2019-05-28T15:47:37.160Z,19.45
2019-05-28T15:50:10.896Z,19.35
2019-05-28T15:52:42.915Z,19.35
2019-05-28T15:55:14.993Z,19.55
2019-05-28T15:57:47.134Z,19.46
2019-05-28T16:00:21.484Z,19.43
2019-05-28T16:02:53.479Z,19.38
2019-05-28T16:05:25.526Z,19.21
2019-05-28T16:07:57.528Z,19.12
2019-05-28T16:10:29.555Z,19.22
2019-05-28T16:13:01.561Z,19.32
2019-05-28T16:15:33.656Z,19.20
2019-05-28T16:18:05.715Z,19.12
2019-05-28T16:20:37.730Z,19.21
2019-05-28T16:23:09.804Z,19.11
2019-05-28T16:25:41.852Z,19.16
2019-05-28T16:28:13.810Z,19.21
2019-05-28T16:30:45.825Z,19.13
2019-05-28T16:33:17.923Z,19.10
2019-05-28T16:35:50.105Z,19.24
2019-05-28T16:38:22.083Z,19.13
2019-05-28T16:40:54.115Z,19.11
2019-05-28T16:43:26.139Z,19.20
2019-05-28T16:45:58.175Z,19.09
2019-05-28T16:48:33.191Z,19.15
2019-05-28T16:51:05.229Z,19.11
2019-05-28T16:53:37.269Z,19.11
2019-05-28T16:56:09.286Z,19.06
2019-05-28T16:58:41.321Z,18.98
2019-05-28T17:01:22.273Z,19.11
2019-05-28T17:03:47.325Z,19.06
2019-05-28T17:06:19.423Z,18.92
2019-05-28T17:08:51.533Z,19.03
2019-05-28T17:11:27.335Z,18.80
2019-05-28T17:13:57.525Z,18.93
2019-05-28T17:16:29.520Z,18.64
2019-05-28T17:19:01.556Z,18.52
2019-05-28T17:21:33.598Z,18.59
2019-05-28T17:24:05.600Z,18.64
2019-05-28T17:26:37.618Z,18.56
2019-05-28T17:29:09.632Z,18.53
2019-05-28T17:31:41.689Z,18.57
2019-05-28T17:34:13.655Z,18.48
2019-05-28T17:36:45.755Z,18.44
2019-05-28T17:39:17.807Z,18.46
2019-05-28T17:41:49.875Z,18.36
2019-05-28T17:44:21.904Z,18.28
2019-05-28T17:46:53.991Z,18.22
2019-05-28T17:49:26.058Z,18.22
2019-05-28T17:51:58.110Z,18.11
2019-05-28T17:54:30.109Z,18.07
2019-05-28T17:57:05.172Z,17.96
2019-05-28T17:59:37.214Z,17.91
2019-05-28T18:02:09.359Z,17.92
2019-05-28T18:04:41.382Z,17.88
2019-05-28T18:07:13.416Z,17.85
2019-05-28T18:09:45.437Z,17.84
2019-05-28T18:12:17.594Z,17.76
2019-05-28T18:14:49.621Z,17.66
2019-05-28T18:17:21.764Z,17.67
2019-05-28T18:19:53.858Z,17.45
2019-05-28T18:22:25.974Z,17.48
2019-05-28T18:24:58.040Z,17.35
2019-05-28T18:27:30.123Z,17.31
2019-05-28T18:30:02.615Z,17.29
2019-05-28T18:32:34.638Z,17.25
2019-05-28T18:35:07.188Z,17.17
2019-05-28T18:37:39.361Z,17.10
2019-05-28T18:40:11.831Z,16.98
2019-05-28T18:42:43.961Z,16.86
2019-05-28T18:45:16.207Z,16.80
2019-05-28T18:47:48.283Z,16.80
2019-05-28T18:50:20.431Z,16.78
2019-05-28T18:52:52.509Z,16.72
2019-05-28T18:55:24.553Z,16.69
2019-05-28T18:57:56.730Z,16.66
2019-05-28T19:00:28.867Z,16.65
2019-05-28T19:03:00.919Z,16.62
2019-05-28T19:05:32.969Z,16.53
2019-05-28T19:08:04.982Z,16.49
2019-05-28T19:10:37.065Z,16.42
2019-05-28T19:13:09.098Z,16.43
2019-05-28T19:15:41.161Z,16.40
2019-05-28T19:18:13.156Z,16.36
2019-05-28T19:20:45.215Z,16.31
2019-05-28T19:23:17.240Z,16.29
2019-05-28T19:25:49.417Z,16.23
2019-05-28T19:28:21.444Z,16.18
2019-05-28T19:30:53.503Z,16.14
2019-05-28T19:33:25.475Z,16.11
2019-05-28T19:35:57.981Z,16.08
2019-05-28T19:38:44.857Z,16.00
2019-05-28T19:41:05.543Z,15.96
2019-05-28T19:43:37.576Z,15.92
2019-05-28T19:46:09.621Z,15.83
2019-05-28T19:48:41.743Z,15.81
2019-05-28T19:51:13.821Z,15.79
2019-05-28T19:53:45.874Z,15.71
2019-05-28T19:56:17.992Z,15.73
2019-05-28T19:58:50.075Z,15.73
2019-05-28T20:01:22.147Z,15.72
2019-05-28T20:03:54.140Z,15.70
2019-05-28T20:06:26.204Z,15.68
2019-05-28T20:08:58.250Z,15.62
2019-05-28T20:11:30.287Z,15.61
2019-05-28T20:14:05.480Z,15.61
2019-05-28T20:16:36.285Z,15.56
2019-05-28T20:19:08.280Z,15.57
2019-05-28T20:21:40.314Z,15.52
2019-05-28T20:24:12.269Z,15.50
2019-05-28T20:26:45.432Z,15.48
2019-05-28T20:29:17.539Z,15.45
2019-05-28T20:31:49.574Z,15.42
2019-05-28T20:34:21.576Z,15.40
2019-05-28T20:36:53.608Z,15.44
2019-05-28T20:39:25.600Z,15.35
2019-05-28T20:41:57.591Z,15.28
2019-05-28T20:44:29.592Z,15.54
2019-05-28T20:47:02.828Z,15.38
2019-05-28T20:49:35.011Z,15.23
2019-05-28T20:52:07.113Z,15.17
2019-05-28T20:54:39.099Z,15.07
2019-05-28T20:57:11.090Z,15.03
2019-05-28T20:59:43.094Z,14.96
2019-05-28T21:02:15.118Z,15.01
2019-05-28T21:04:47.852Z,15.02
2019-05-28T21:07:25.234Z,14.96
2019-05-28T21:09:57.195Z,14.89
2019-05-28T21:12:42.680Z,14.84
2019-05-28T21:15:03.859Z,14.72
2019-05-28T21:17:35.866Z,14.62
2019-05-28T21:20:08.389Z,14.69
2019-05-28T21:22:40.386Z,14.65
2019-05-28T21:25:13.204Z,14.60
2019-05-28T21:27:45.308Z,14.60
2019-05-28T21:30:17.295Z,14.53
2019-05-28T21:32:50.542Z,14.45
2019-05-28T21:35:22.677Z,14.43
2019-05-28T21:37:55.087Z,14.38
2019-05-28T21:40:27.083Z,14.36
2019-05-28T21:43:06.130Z,14.24
2019-05-28T21:45:33.002Z,14.26
2019-05-28T21:48:05.025Z,14.27
2019-05-28T21:50:37.027Z,14.29
2019-05-28T21:53:09.001Z,14.32
2019-05-28T21:55:41.052Z,14.33
2019-05-28T21:58:13.025Z,14.36
2019-05-28T22:00:54.190Z,14.31
2019-05-28T22:03:26.141Z,14.25
2019-05-28T22:05:59.311Z,14.26
2019-05-28T22:08:31.445Z,14.17
2019-05-28T22:11:03.933Z,14.10
2019-05-28T22:13:36.017Z,14.11
2019-05-28T22:16:08.587Z,14.10
2019-05-28T22:18:40.705Z,14.00
2019-05-28T22:21:12.702Z,13.98
2019-05-28T22:23:44.675Z,13.95
2019-05-28T22:26:16.654Z,13.95
2019-05-28T22:28:48.616Z,13.93
2019-05-28T22:31:20.566Z,13.68
2019-05-28T22:33:52.540Z,13.61
2019-05-28T22:36:24.529Z,13.55
2019-05-28T22:41:50.691Z,13.49
2019-05-28T22:44:22.622Z,13.46
2019-05-28T22:46:54.605Z,13.43
2019-05-28T22:49:26.639Z,13.43
2019-05-28T22:51:59.725Z,13.41
2019-05-28T22:54:31.819Z,13.46
2019-05-28T22:57:05.220Z,13.54
2019-05-28T22:59:37.667Z,13.40
2019-05-28T23:02:09.667Z,13.23
2019-05-28T23:04:41.637Z,13.21
2019-05-28T23:07:13.612Z,13.12
2019-05-28T23:09:45.615Z,13.15
2019-05-28T23:12:17.623Z,13.08
2019-05-28T23:14:49.973Z,13.07
2019-05-28T23:17:21.966Z,13.13
2019-05-28T23:19:53.942Z,13.08
2019-05-28T23:22:25.942Z,13.10
2019-05-28T23:24:57.892Z,13.13
2019-05-28T23:27:29.883Z,13.10
2019-05-28T23:30:07.375Z,13.11
2019-05-28T23:32:35.846Z,13.18
2019-05-28T23:35:08.791Z,13.11
2019-05-28T23:37:40.886Z,13.05
2019-05-28T23:40:13.368Z,12.95
2019-05-28T23:42:45.393Z,12.91
2019-05-28T23:45:17.351Z,12.83
2019-05-28T23:47:49.333Z,12.86
2019-05-28T23:50:21.504Z,12.86
2019-05-28T23:52:53.476Z,12.76
2019-05-28T23:55:25.421Z,12.71
2019-05-28T23:57:57.418Z,12.63
